createdAt,value
2017-06-04T00:02:21.756Z,17.70
2017-06-04T00:04:54.683Z,17.80
2017-06-04T00:07:27.501Z,17.70
2017-06-04T00:10:00.637Z,17.80
2017-06-04T00:12:33.251Z,17.70
2017-06-04T00:15:06.233Z,17.70
2017-06-04T00:17:39.183Z,17.70
2017-06-04T00:20:12.376Z,17.70
2017-06-04T00:22:45.407Z,17.70
2017-06-04T00:25:18.399Z,17.70
2017-06-04T00:27:51.411Z,17.70
2017-06-04T00:30:21.469Z,17.80
2017-06-04T00:32:54.291Z,17.80
2017-06-04T00:35:27.079Z,17.80
2017-06-04T00:37:59.971Z,17.70
2017-06-04T00:40:33.084Z,17.70
2017-06-04T00:43:05.820Z,17.70
2017-06-04T00:45:38.645Z,17.70
2017-06-04T00:48:11.766Z,17.70
2017-06-04T00:50:44.804Z,17.70
2017-06-04T00:53:17.975Z,17.60
2017-06-04T00:55:50.891Z,17.60
2017-06-04T00:58:23.591Z,17.60
2017-06-04T01:00:56.635Z,17.50
2017-06-04T01:03:29.391Z,17.50
2017-06-04T01:06:02.123Z,17.50
2017-06-04T01:08:35.123Z,17.40
2017-06-04T01:11:07.988Z,17.50
2017-06-04T01:13:40.887Z,17.40
2017-06-04T01:16:13.984Z,17.40
2017-06-04T01:18:46.811Z,17.40
2017-06-04T01:21:19.727Z,17.40
2017-06-04T01:23:52.775Z,17.40
2017-06-04T01:26:25.719Z,17.40
2017-06-04T01:28:58.736Z,17.40
2017-06-04T01:31:32.018Z,17.40
2017-06-04T01:34:04.536Z,17.50
2017-06-04T01:36:37.693Z,17.40
2017-06-04T01:39:10.612Z,17.40
2017-06-04T01:41:42.819Z,17.40
2017-06-04T01:44:15.647Z,17.40
2017-06-04T01:46:48.547Z,17.40
2017-06-04T01:49:21.475Z,17.40
2017-06-04T01:51:54.359Z,17.40
2017-06-04T01:54:27.371Z,17.40
2017-06-04T01:57:00.100Z,17.30
2017-06-04T01:59:33.003Z,17.30
2017-06-04T02:02:05.743Z,17.30
2017-06-04T02:04:38.583Z,17.20
2017-06-04T02:07:11.491Z,17.20
2017-06-04T02:09:44.372Z,17.20
2017-06-04T02:12:17.511Z,17.20
2017-06-04T02:14:50.583Z,17.20
2017-06-04T02:17:23.539Z,17.20
2017-06-04T02:19:55.900Z,17.20
2017-06-04T02:22:28.871Z,17.20
2017-06-04T02:25:02.036Z,17.20
2017-06-04T02:27:34.659Z,17.10
2017-06-04T02:30:07.465Z,17.20
2017-06-04T02:32:40.480Z,17.20
2017-06-04T02:35:13.396Z,17.20
2017-06-04T02:37:53.159Z,17.20
2017-06-04T02:40:26.289Z,17.20
2017-06-04T02:42:59.144Z,17.10
2017-06-04T02:45:32.027Z,17.10
2017-06-04T02:48:04.791Z,17.10
2017-06-04T02:50:37.911Z,17.10
2017-06-04T02:53:10.558Z,17.10
2017-06-04T02:55:43.579Z,17.00
2017-06-04T02:58:15.783Z,17.00
2017-06-04T03:00:48.747Z,16.90
2017-06-04T03:03:21.696Z,16.90
2017-06-04T03:05:54.796Z,16.80
2017-06-04T03:08:27.856Z,16.70
2017-06-04T03:11:00.634Z,16.60
2017-06-04T03:13:33.551Z,16.60
2017-06-04T03:16:06.162Z,16.50
2017-06-04T03:18:39.219Z,16.50
2017-06-04T03:21:11.999Z,16.40
2017-06-04T03:23:45.071Z,16.40
2017-06-04T03:26:17.993Z,16.30
2017-06-04T03:28:51.143Z,16.30
2017-06-04T03:31:23.887Z,16.10
2017-06-04T03:33:56.875Z,16.10
2017-06-04T03:36:29.764Z,16.10
2017-06-04T03:39:02.739Z,16.00
2017-06-04T03:41:35.704Z,16.00
2017-06-04T03:44:08.836Z,16.00
2017-06-04T03:46:41.631Z,15.90
2017-06-04T03:49:14.657Z,15.90
2017-06-04T03:51:47.604Z,15.90
2017-06-04T03:54:20.632Z,16.00
2017-06-04T03:56:53.340Z,16.00
2017-06-04T03:59:26.352Z,16.00
2017-06-04T04:01:59.176Z,16.00
2017-06-04T04:04:32.191Z,16.00
2017-06-04T04:07:05.230Z,16.00
2017-06-04T04:09:38.316Z,16.00
2017-06-04T04:12:11.018Z,16.00
2017-06-04T04:14:43.863Z,16.00
2017-06-04T04:17:13.321Z,16.00
2017-06-04T04:19:46.103Z,16.00
2017-06-04T04:22:19.035Z,16.00
2017-06-04T04:24:52.215Z,16.00
2017-06-04T04:27:25.262Z,16.00
2017-06-04T04:29:58.348Z,16.00
2017-06-04T04:32:31.573Z,16.00
2017-06-04T04:35:03.919Z,16.00
2017-06-04T04:37:36.807Z,16.00
2017-06-04T04:40:09.755Z,16.00
2017-06-04T04:42:42.879Z,16.00
2017-06-04T04:45:15.894Z,15.90
2017-06-04T04:47:48.817Z,15.90
2017-06-04T04:50:21.870Z,15.90
2017-06-04T04:52:54.793Z,15.90
2017-06-04T04:55:27.629Z,15.90
2017-06-04T04:58:00.448Z,15.90
2017-06-04T05:00:33.301Z,15.90
2017-06-04T05:03:06.228Z,15.90
2017-06-04T05:05:39.239Z,15.90
2017-06-04T05:08:12.223Z,15.90
2017-06-04T05:10:45.147Z,15.90
2017-06-04T05:13:17.343Z,15.90
2017-06-04T05:15:49.995Z,15.90
2017-06-04T05:18:22.272Z,15.90
2017-06-04T05:20:55.180Z,15.90
2017-06-04T05:23:28.223Z,15.90
2017-06-04T05:26:11.902Z,15.90
2017-06-04T05:28:50.283Z,15.90
2017-06-04T05:31:23.263Z,15.80
2017-06-04T05:33:56.033Z,15.80
2017-06-04T05:36:28.967Z,15.80
2017-06-04T05:39:06.011Z,15.80
2017-06-04T05:41:39.067Z,15.80
2017-06-04T05:44:11.951Z,15.80
2017-06-04T05:46:44.860Z,15.90
2017-06-04T05:49:17.540Z,15.90
2017-06-04T05:51:50.353Z,15.90
2017-06-04T05:54:23.120Z,15.90
2017-06-04T05:56:56.083Z,16.00
2017-06-04T05:59:28.955Z,16.00
2017-06-04T06:02:01.815Z,16.00
2017-06-04T06:04:34.096Z,16.00
2017-06-04T06:07:06.959Z,16.00
2017-06-04T06:09:39.819Z,16.00
2017-06-04T06:12:12.847Z,16.10
2017-06-04T06:14:45.827Z,16.20
2017-06-04T06:17:18.855Z,16.20
2017-06-04T06:19:51.564Z,16.30
2017-06-04T06:22:24.535Z,16.30
2017-06-04T06:24:57.436Z,16.30
2017-06-04T06:27:30.171Z,16.30
2017-06-04T06:30:03.140Z,16.30
2017-06-04T06:32:36.111Z,16.30
2017-06-04T06:35:09.200Z,16.40
2017-06-04T06:37:42.251Z,16.30
2017-06-04T06:40:15.363Z,16.30
2017-06-04T06:42:48.395Z,16.40
2017-06-04T06:45:21.347Z,16.40
2017-06-04T06:47:54.315Z,16.50
2017-06-04T06:50:27.020Z,16.60
2017-06-04T06:53:00.263Z,16.60
2017-06-04T06:55:32.879Z,16.70
2017-06-04T06:58:05.795Z,16.80
2017-06-04T07:00:38.763Z,16.80
2017-06-04T07:03:11.927Z,16.90
2017-06-04T07:05:44.567Z,17.00
2017-06-04T07:08:17.488Z,17.00
2017-06-04T07:10:50.373Z,17.00
2017-06-04T07:13:23.255Z,17.00
2017-06-04T07:15:56.163Z,17.00
2017-06-04T07:18:29.159Z,17.10
2017-06-04T07:21:03.133Z,17.30
2017-06-04T07:23:36.119Z,17.30
2017-06-04T07:26:09.047Z,17.50
2017-06-04T07:28:41.947Z,17.60
2017-06-04T07:31:14.819Z,17.70
2017-06-04T07:33:47.808Z,17.80
2017-06-04T07:36:20.955Z,17.80
2017-06-04T07:38:53.960Z,17.70
2017-06-04T07:41:26.923Z,17.70
2017-06-04T07:43:59.834Z,17.50
2017-06-04T07:46:32.856Z,17.40
2017-06-04T07:49:05.792Z,17.40
2017-06-04T07:51:38.591Z,17.40
2017-06-04T07:54:11.775Z,17.40
2017-06-04T07:56:44.607Z,17.40
2017-06-04T07:59:17.494Z,17.50
2017-06-04T08:01:50.080Z,17.60
2017-06-04T08:04:23.076Z,17.70
2017-06-04T08:06:56.118Z,17.70
2017-06-04T08:09:28.947Z,17.80
2017-06-04T08:12:02.067Z,17.90
2017-06-04T08:14:34.856Z,18.10
2017-06-04T08:17:07.457Z,18.20
2017-06-04T08:19:40.619Z,18.30
2017-06-04T08:22:13.360Z,18.40
2017-06-04T08:24:46.081Z,18.50
2017-06-04T08:27:18.883Z,18.70
2017-06-04T08:29:51.963Z,19.00
2017-06-04T08:32:25.075Z,19.10
2017-06-04T08:34:58.016Z,19.20
2017-06-04T08:37:30.875Z,19.10
2017-06-04T08:40:03.898Z,19.20
2017-06-04T08:42:36.675Z,19.30
2017-06-04T08:45:09.596Z,19.30
2017-06-04T08:47:42.639Z,19.40
2017-06-04T08:50:15.816Z,19.50
2017-06-04T08:52:48.798Z,19.60
2017-06-04T08:55:21.804Z,19.50
2017-06-04T08:57:51.747Z,19.40
2017-06-04T09:00:24.503Z,19.20
2017-06-04T09:02:57.351Z,19.10
2017-06-04T09:05:30.259Z,18.90
2017-06-04T09:08:03.208Z,18.80
2017-06-04T09:10:36.142Z,18.70
2017-06-04T09:13:09.020Z,18.70
2017-06-04T09:15:41.980Z,18.90
2017-06-04T09:18:15.003Z,19.20
2017-06-04T09:20:47.684Z,19.80
2017-06-04T09:23:20.561Z,21.00
2017-06-04T09:25:53.419Z,21.90
2017-06-04T09:28:26.311Z,22.70
2017-06-04T09:30:59.084Z,23.20
2017-06-04T09:33:28.517Z,23.50
2017-06-04T09:36:01.745Z,23.40
2017-06-04T09:38:34.279Z,23.10
2017-06-04T09:41:07.023Z,23.20
2017-06-04T09:43:37.199Z,23.90
2017-06-04T09:46:06.882Z,24.80
2017-06-04T09:48:39.423Z,25.30
2017-06-04T09:51:12.559Z,25.50
2017-06-04T09:53:45.584Z,25.30
2017-06-04T09:56:18.336Z,24.80
2017-06-04T09:58:52.243Z,24.30
2017-06-04T10:01:25.199Z,23.70
2017-06-04T10:03:55.315Z,23.20
2017-06-04T10:06:28.055Z,23.00
2017-06-04T10:09:00.864Z,22.80
2017-06-04T10:11:33.715Z,22.50
2017-06-04T10:14:06.548Z,22.40
2017-06-04T10:16:39.315Z,22.30
2017-06-04T10:19:12.248Z,22.50
2017-06-04T10:21:45.323Z,22.50
2017-06-04T10:24:18.319Z,22.60
2017-06-04T10:26:51.051Z,22.80
2017-06-04T10:29:24.071Z,22.80
2017-06-04T10:31:57.019Z,22.80
2017-06-04T10:34:29.647Z,22.60
2017-06-04T10:37:02.819Z,22.70
2017-06-04T10:39:35.261Z,22.50
2017-06-04T10:42:08.179Z,22.40
2017-06-04T10:44:40.891Z,22.20
2017-06-04T10:47:13.836Z,22.00
2017-06-04T10:49:43.699Z,21.90
2017-06-04T10:52:16.103Z,21.90
2017-06-04T10:54:48.884Z,22.00
2017-06-04T10:57:21.907Z,22.10
2017-06-04T10:59:55.031Z,22.30
2017-06-04T11:02:27.953Z,22.50
2017-06-04T11:05:00.587Z,22.60
2017-06-04T11:07:33.327Z,22.80
2017-06-04T11:10:06.168Z,23.00
2017-06-04T11:12:39.107Z,23.10
2017-06-04T11:15:11.701Z,23.20
2017-06-04T11:17:44.555Z,23.30
2017-06-04T11:20:17.123Z,23.40
2017-06-04T11:22:50.266Z,23.40
2017-06-04T11:25:22.956Z,23.20
2017-06-04T11:27:55.944Z,23.20
2017-06-04T11:30:30.788Z,23.20
2017-06-04T11:33:03.556Z,23.10
2017-06-04T11:35:36.363Z,23.10
2017-06-04T11:38:09.387Z,22.90
2017-06-04T11:40:41.616Z,22.90
2017-06-04T11:43:14.479Z,22.80
2017-06-04T11:45:47.301Z,22.80
2017-06-04T11:48:20.284Z,22.60
2017-06-04T11:50:53.111Z,22.50
2017-06-04T11:53:26.215Z,22.50
2017-06-04T11:55:59.078Z,22.40
2017-06-04T11:58:32.215Z,22.60
2017-06-04T12:01:04.775Z,22.80
2017-06-04T12:03:37.715Z,23.10
2017-06-04T12:06:10.457Z,23.50
2017-06-04T12:08:43.335Z,23.80
2017-06-04T12:11:16.103Z,24.00
2017-06-04T12:13:49.141Z,24.00
2017-06-04T12:16:22.143Z,24.00
2017-06-04T12:18:55.384Z,23.80
2017-06-04T12:21:27.973Z,23.70
2017-06-04T12:24:00.803Z,23.80
2017-06-04T12:26:33.647Z,24.00
2017-06-04T12:29:06.584Z,24.40
2017-06-04T12:31:39.519Z,24.60
2017-06-04T12:34:12.432Z,24.90
2017-06-04T12:36:45.279Z,24.90
2017-06-04T12:39:18.472Z,24.90
2017-06-04T12:41:51.161Z,24.80
2017-06-04T12:44:24.127Z,24.70
2017-06-04T12:46:56.851Z,24.60
2017-06-04T12:49:29.886Z,24.30
2017-06-04T12:52:02.819Z,24.00
2017-06-04T12:54:37.595Z,23.60
2017-06-04T12:57:10.415Z,23.20
2017-06-04T12:59:43.333Z,22.80
2017-06-04T13:02:16.536Z,22.40
2017-06-04T13:04:49.508Z,22.10
2017-06-04T13:07:22.839Z,21.70
2017-06-04T13:09:55.391Z,21.50
2017-06-04T13:12:28.308Z,21.40
2017-06-04T13:15:02.185Z,21.30
2017-06-04T13:17:35.283Z,21.30
2017-06-04T13:20:08.275Z,21.50
2017-06-04T13:22:41.188Z,21.90
2017-06-04T13:25:14.071Z,22.30
2017-06-04T13:27:46.867Z,22.60
2017-06-04T13:30:19.967Z,23.10
2017-06-04T13:32:52.888Z,24.50
2017-06-04T13:35:25.931Z,27.30
2017-06-04T13:37:58.895Z,30.40
2017-06-04T13:40:31.971Z,33.20
2017-06-04T13:43:04.649Z,35.10
2017-06-04T13:45:38.379Z,36.80
2017-06-04T13:48:11.171Z,38.00
2017-06-04T13:50:44.203Z,38.90
2017-06-04T13:53:16.968Z,39.40
2017-06-04T13:55:49.591Z,39.80
2017-06-04T13:58:22.750Z,38.80
2017-06-04T14:00:55.396Z,37.00
2017-06-04T14:03:28.364Z,34.80
2017-06-04T14:06:01.967Z,32.70
2017-06-04T14:08:35.028Z,30.90
2017-06-04T14:11:08.331Z,29.60
2017-06-04T14:13:40.943Z,29.00
2017-06-04T14:16:13.887Z,29.10
2017-06-04T14:18:47.059Z,29.80
2017-06-04T14:21:19.495Z,30.90
2017-06-04T14:23:52.603Z,31.90
2017-06-04T14:26:25.407Z,33.50
2017-06-04T14:28:58.427Z,35.20
2017-06-04T14:31:31.275Z,36.40
2017-06-04T14:34:05.064Z,36.60
2017-06-04T14:36:38.024Z,35.80
2017-06-04T14:39:10.739Z,34.20
2017-06-04T14:41:43.539Z,32.40
2017-06-04T14:44:16.384Z,30.90
2017-06-04T14:46:49.511Z,29.50
2017-06-04T14:49:19.487Z,28.30
2017-06-04T14:51:52.432Z,27.40
2017-06-04T14:54:25.467Z,26.70
2017-06-04T14:56:58.371Z,26.20
2017-06-04T14:59:31.213Z,25.70
2017-06-04T15:02:04.090Z,25.80
2017-06-04T15:04:37.561Z,26.20
2017-06-04T15:07:10.152Z,26.30
2017-06-04T15:09:42.966Z,26.30
2017-06-04T15:12:16.015Z,25.90
2017-06-04T15:14:48.699Z,25.60
2017-06-04T15:17:21.776Z,25.40
2017-06-04T15:19:54.780Z,25.10
2017-06-04T15:22:27.920Z,24.80
2017-06-04T15:25:00.883Z,24.50
2017-06-04T15:27:34.103Z,24.30
2017-06-04T15:30:07.428Z,24.50
2017-06-04T15:32:39.735Z,25.10
2017-06-04T15:35:12.854Z,25.80
2017-06-04T15:37:46.335Z,26.30
2017-06-04T15:40:19.755Z,26.90
2017-06-04T15:42:52.841Z,27.10
2017-06-04T15:45:25.463Z,27.00
2017-06-04T15:47:58.279Z,26.60
2017-06-04T15:50:31.207Z,26.20
2017-06-04T15:53:03.959Z,25.70
2017-06-04T15:55:36.691Z,25.40
2017-06-04T15:58:09.564Z,25.30
2017-06-04T16:00:42.346Z,25.40
2017-06-04T16:03:15.377Z,25.50
2017-06-04T16:05:48.170Z,25.60
2017-06-04T16:08:20.937Z,25.90
2017-06-04T16:10:53.975Z,26.10
2017-06-04T16:13:26.968Z,25.90
2017-06-04T16:16:00.083Z,26.10
2017-06-04T16:18:32.987Z,26.00
2017-06-04T16:21:05.879Z,26.10
2017-06-04T16:23:38.831Z,26.00
2017-06-04T16:26:11.692Z,26.00
2017-06-04T16:28:44.723Z,26.00
2017-06-04T16:31:16.955Z,25.80
2017-06-04T16:33:49.915Z,25.60
2017-06-04T16:36:22.847Z,25.50
2017-06-04T16:38:55.819Z,25.30
2017-06-04T16:41:28.884Z,25.10
2017-06-04T16:44:02.263Z,25.00
2017-06-04T16:46:34.743Z,24.80
2017-06-04T16:49:07.847Z,24.60
2017-06-04T16:51:38.003Z,24.30
2017-06-04T16:54:10.403Z,24.10
2017-06-04T16:56:44.283Z,23.90
2017-06-04T16:59:17.443Z,23.70
2017-06-04T17:01:50.583Z,23.60
2017-06-04T17:04:23.571Z,23.50
2017-06-04T17:06:56.456Z,23.30
2017-06-04T17:09:29.148Z,23.20
2017-06-04T17:12:02.015Z,23.10
2017-06-04T17:14:34.916Z,23.00
2017-06-04T17:17:08.511Z,22.90
2017-06-04T17:19:40.931Z,22.90
2017-06-04T17:22:13.792Z,22.80
2017-06-04T17:24:46.640Z,22.70
2017-06-04T17:27:16.989Z,22.50
2017-06-04T17:29:49.559Z,22.50
2017-06-04T17:32:22.015Z,22.40
2017-06-04T17:34:54.495Z,22.30
2017-06-04T17:37:27.407Z,22.10
2017-06-04T17:40:00.355Z,22.10
2017-06-04T17:42:33.359Z,22.00
2017-06-04T17:45:06.552Z,22.10
2017-06-04T17:47:39.543Z,22.00
2017-06-04T17:50:12.663Z,21.90
2017-06-04T17:52:45.439Z,21.80
2017-06-04T17:55:18.366Z,21.80
2017-06-04T17:57:51.411Z,21.70
2017-06-04T18:00:24.492Z,21.60
2017-06-04T18:02:57.117Z,21.50
2017-06-04T18:05:30.073Z,21.40
2017-06-04T18:08:02.935Z,21.20
2017-06-04T18:10:35.924Z,21.20
2017-06-04T18:13:08.441Z,21.20
2017-06-04T18:15:41.511Z,21.10
2017-06-04T18:18:14.307Z,21.10
2017-06-04T18:20:47.403Z,20.90
2017-06-04T18:23:19.640Z,20.80
2017-06-04T18:25:52.755Z,20.60
2017-06-04T18:28:25.777Z,20.50
2017-06-04T18:30:58.699Z,20.30
2017-06-04T18:33:31.695Z,20.20
2017-06-04T18:36:04.636Z,20.00
2017-06-04T18:38:38.051Z,19.80
2017-06-04T18:41:08.021Z,19.70
2017-06-04T18:43:40.336Z,19.50
2017-06-04T18:46:13.478Z,19.40
2017-06-04T18:48:46.284Z,19.30
2017-06-04T18:51:19.443Z,19.20
2017-06-04T18:53:53.265Z,19.20
2017-06-04T18:56:25.951Z,19.10
2017-06-04T18:58:58.747Z,19.00
2017-06-04T19:01:31.575Z,19.00
2017-06-04T19:04:04.472Z,18.90
2017-06-04T19:06:37.444Z,18.90
2017-06-04T19:09:10.559Z,18.90
2017-06-04T19:11:43.616Z,18.80
2017-06-04T19:14:16.628Z,18.80
2017-06-04T19:16:49.753Z,18.70
2017-06-04T19:19:22.677Z,18.70
2017-06-04T19:21:55.334Z,18.70
2017-06-04T19:24:28.419Z,18.60
2017-06-04T19:27:01.348Z,18.60
2017-06-04T19:29:34.189Z,18.50
2017-06-04T19:32:07.752Z,18.50
2017-06-04T19:34:40.077Z,18.40
2017-06-04T19:37:13.100Z,18.40
2017-06-04T19:39:45.827Z,18.30
2017-06-04T19:42:18.748Z,18.20
2017-06-04T19:44:51.507Z,18.10
2017-06-04T19:47:24.449Z,18.00
2017-06-04T19:49:57.363Z,17.90
2017-06-04T19:52:29.881Z,17.90
2017-06-04T19:55:02.743Z,17.80
2017-06-04T19:57:35.752Z,17.80
2017-06-04T20:00:08.652Z,17.70
2017-06-04T20:02:43.529Z,17.70
2017-06-04T20:05:13.518Z,17.60
2017-06-04T20:07:46.495Z,17.60
2017-06-04T20:10:16.264Z,17.60
2017-06-04T20:12:48.948Z,17.50
2017-06-04T20:15:21.887Z,17.50
2017-06-04T20:17:52.364Z,17.50
2017-06-04T20:20:25.600Z,17.50
2017-06-04T20:22:58.238Z,17.50
2017-06-04T20:25:31.136Z,17.40
2017-06-04T20:28:04.233Z,17.50
2017-06-04T20:30:34.329Z,17.50
2017-06-04T20:33:04.473Z,17.50
2017-06-04T20:35:34.532Z,17.50
2017-06-04T20:38:08.093Z,17.40
2017-06-04T20:40:44.582Z,17.40
2017-06-04T20:43:17.332Z,17.40
2017-06-04T20:45:50.184Z,17.40
2017-06-04T20:48:23.266Z,17.40
2017-06-04T20:50:56.125Z,17.30
2017-06-04T20:53:29.600Z,17.30
2017-06-04T20:56:01.994Z,17.30
2017-06-04T20:58:34.864Z,17.30
2017-06-04T21:01:08.168Z,17.20
2017-06-04T21:03:40.799Z,17.20
2017-06-04T21:06:14.172Z,17.20
2017-06-04T21:08:46.914Z,17.10
2017-06-04T21:11:19.944Z,17.10
2017-06-04T21:13:52.724Z,17.10
2017-06-04T21:16:25.543Z,17.10
2017-06-04T21:18:58.444Z,17.00
2017-06-04T21:21:31.247Z,17.00
2017-06-04T21:24:04.108Z,17.00
2017-06-04T21:26:36.744Z,16.90
2017-06-04T21:29:09.915Z,16.90
2017-06-04T21:31:42.554Z,16.80
2017-06-04T21:34:15.611Z,16.70
2017-06-04T21:36:48.419Z,16.60
2017-06-04T21:39:21.376Z,16.60
2017-06-04T21:41:54.276Z,16.50
2017-06-04T21:44:27.067Z,16.50
2017-06-04T21:46:59.725Z,16.30
2017-06-04T21:49:32.064Z,16.30
2017-06-04T21:52:04.888Z,16.20
2017-06-04T21:54:38.095Z,16.10
2017-06-04T21:57:10.928Z,16.10
2017-06-04T21:59:43.840Z,16.10
2017-06-04T22:02:16.835Z,16.00
2017-06-04T22:04:51.834Z,15.90
2017-06-04T22:07:24.888Z,15.80
2017-06-04T22:09:57.631Z,15.70
2017-06-04T22:12:30.488Z,15.70
2017-06-04T22:15:03.368Z,15.60
2017-06-04T22:17:36.580Z,15.60
2017-06-04T22:20:09.244Z,15.50
2017-06-04T22:22:42.119Z,15.50
2017-06-04T22:25:15.119Z,15.50
2017-06-04T22:27:47.803Z,15.50
2017-06-04T22:30:20.527Z,15.50
2017-06-04T22:32:53.627Z,15.40
2017-06-04T22:35:26.661Z,15.50
2017-06-04T22:37:59.652Z,15.40
2017-06-04T22:40:32.659Z,15.40
2017-06-04T22:43:05.584Z,15.40
2017-06-04T22:45:38.432Z,15.30
2017-06-04T22:48:11.494Z,15.40
2017-06-04T22:50:44.365Z,15.30
2017-06-04T22:53:17.428Z,15.20
2017-06-04T22:55:50.243Z,15.20
2017-06-04T22:58:23.245Z,15.10
2017-06-04T23:00:56.267Z,15.00
2017-06-04T23:03:29.439Z,15.00
2017-06-04T23:06:02.268Z,14.90
2017-06-04T23:08:35.168Z,14.90
2017-06-04T23:11:07.964Z,14.80
2017-06-04T23:13:40.803Z,14.80
2017-06-04T23:16:15.843Z,14.70
2017-06-04T23:18:48.391Z,14.70
2017-06-04T23:21:21.233Z,14.60
2017-06-04T23:23:54.094Z,14.60
2017-06-04T23:26:26.942Z,14.60
2017-06-04T23:28:59.564Z,14.50
2017-06-04T23:31:32.595Z,14.40
2017-06-04T23:34:05.484Z,14.40
2017-06-04T23:36:38.584Z,14.30
2017-06-04T23:39:08.460Z,14.20
2017-06-04T23:41:41.135Z,14.10
2017-06-04T23:44:14.068Z,14.10
2017-06-04T23:46:46.735Z,14.00
2017-06-04T23:49:19.632Z,14.00
2017-06-04T23:51:52.429Z,13.90
2017-06-04T23:54:25.145Z,13.90
2017-06-04T23:56:55.236Z,13.90
2017-06-04T23:59:28.012Z,13.90
